Time;durP1;ratioP1;P1;durP2;ratioP2;P2;SDS_P1;SDS_P2;PMS_P1;PMS_P2;Temp;Humidity;BMP_temperature;BMP_pressure;BME280_temperature;BME280_humidity;BME280_pressure;Samples;Min_cycle;Max_cycle;Signal;HPM_P1;HPM_P2
2022/09/19 00:00:46;;;;;;;6.17;3.00;;;10.30;99.90;;;;;;5074902;28;20915;-70
2022/09/19 00:03:13;;;;;;;5.40;2.83;;;10.30;99.90;;;;;;5074563;28;20493;-70
2022/09/19 00:05:41;;;;;;;3.87;2.50;;;10.30;99.90;;;;;;5075320;28;20446;-70
2022/09/19 00:08:10;;;;;;;4.03;2.40;;;10.20;99.90;;;;;;5075401;28;20465;-70
2022/09/19 00:10:41;;;;;;;4.60;2.83;;;10.20;99.90;;;;;;5075128;28;20497;-70
2022/09/19 00:13:09;;;;;;;6.57;2.17;;;10.20;99.90;;;;;;5074569;28;20557;-70
2022/09/19 00:15:37;;;;;;;7.20;2.17;;;10.20;99.90;;;;;;5074126;28;20482;-70
2022/09/19 00:18:04;;;;;;;4.77;2.60;;;10.20;99.90;;;;;;5074569;28;20450;-70
2022/09/19 00:20:33;;;;;;;5.93;2.10;;;10.10;99.90;;;;;;5074695;28;20540;-70
2022/09/19 00:25:45;;;;;;;5.10;2.40;;;10.00;99.90;;;;;;5074158;28;20433;-71
2022/09/19 00:28:12;;;;;;;3.27;2.63;;;10.00;99.90;;;;;;5074354;28;20450;-69
2022/09/19 00:30:39;;;;;;;5.43;2.70;;;10.00;99.90;;;;;;5074145;28;20799;-71
2022/09/19 00:33:06;;;;;;;4.30;2.53;;;10.00;99.90;;;;;;5074000;28;20482;-71
2022/09/19 00:35:33;;;;;;;3.00;2.60;;;10.00;99.90;;;;;;5073613;28;20481;-70
2022/09/19 00:38:00;;;;;;;7.27;2.90;;;10.00;99.90;;;;;;5074099;28;20484;-70
2022/09/19 00:40:27;;;;;;;2.27;2.00;;;10.00;99.90;;;;;;5073844;28;20458;-70
2022/09/19 00:42:55;;;;;;;5.17;2.87;;;10.00;99.90;;;;;;5074093;28;20458;-70
2022/09/19 00:45:22;;;;;;;5.13;2.80;;;10.00;99.90;;;;;;5073896;28;20480;-70
2022/09/19 00:47:52;;;;;;;4.90;3.03;;;10.00;99.90;;;;;;5074041;28;20923;-70
2022/09/19 00:50:22;;;;;;;3.13;2.20;;;10.00;99.90;;;;;;5073634;28;20454;-70
2022/09/19 00:52:51;;;;;;;5.70;3.10;;;10.00;99.90;;;;;;5073860;28;20458;-70
2022/09/19 00:55:19;;;;;;;6.03;2.60;;;10.00;99.90;;;;;;5074066;28;20801;-70
2022/09/19 00:58:02;;;;;;;6.30;2.93;;;10.00;99.90;;;;;;5073508;28;20540;-71
2022/09/19 01:00:30;;;;;;;5.63;3.37;;;10.00;99.90;;;;;;5073556;28;20431;-70
2022/09/19 01:02:57;;;;;;;5.60;2.83;;;10.00;99.90;;;;;;5073536;28;20480;-71
2022/09/19 01:05:45;;;;;;;5.37;2.90;;;9.90;99.90;;;;;;5073902;28;20895;-70
2022/09/19 01:08:33;;;;;;;7.07;3.87;;;9.90;99.90;;;;;;5073662;28;20442;-70
2022/09/19 01:11:12;;;;;;;3.37;3.07;;;9.90;99.90;;;;;;5075729;28;20442;-71
2022/09/19 01:13:48;;;;;;;5.93;4.03;;;9.90;99.90;;;;;;5077878;28;20473;-70
2022/09/19 01:16:20;;;;;;;8.10;3.83;;;9.80;99.90;;;;;;5077127;28;20466;-71
2022/09/19 01:18:52;;;;;;;6.17;3.37;;;9.80;99.90;;;;;;5077078;28;20449;-70
2022/09/19 01:21:39;;;;;;;7.90;4.00;;;9.80;99.90;;;;;;5077572;28;20451;-71
2022/09/19 01:24:34;;;;;;;4.87;3.83;;;9.90;99.90;;;;;;5077076;28;20442;-71
2022/09/19 01:27:35;;;;;;;4.33;3.93;;;9.80;99.90;;;;;;5077512;28;20477;-71
2022/09/19 01:30:06;;;;;;;4.83;3.67;;;9.80;99.90;;;;;;5015554;28;20449;-71
2022/09/19 01:32:36;;;;;;;6.80;3.60;;;9.80;99.90;;;;;;5015350;28;20437;-70
2022/09/19 01:35:09;;;;;;;9.93;3.50;;;9.90;99.90;;;;;;5015478;28;20544;-70
2022/09/19 01:37:41;;;;;;;4.57;3.33;;;9.90;99.90;;;;;;5015236;28;20453;-70
2022/09/19 01:40:11;;;;;;;4.40;3.80;;;9.90;99.90;;;;;;5015260;28;21000;-69
2022/09/19 01:42:51;;;;;;;7.13;3.70;;;9.90;99.90;;;;;;5014988;28;20457;-70
2022/09/19 01:45:19;;;;;;;3.20;2.90;;;9.90;99.90;;;;;;5015193;28;20445;-71
2022/09/19 01:47:53;;;;;;;5.93;3.43;;;9.80;99.90;;;;;;5015117;28;20469;-70
2022/09/19 01:50:31;;;;;;;3.43;3.03;;;9.80;99.90;;;;;;5015062;28;20498;-69
2022/09/19 01:53:06;;;;;;;11.23;3.93;;;9.80;99.90;;;;;;5014979;28;20457;-70
2022/09/19 01:55:41;;;;;;;7.60;3.43;;;9.70;99.90;;;;;;5014999;28;20559;-69
2022/09/19 01:58:13;;;;;;;6.87;3.33;;;9.70;99.90;;;;;;5016184;28;20547;-69
2022/09/19 02:00:45;;;;;;;4.63;3.40;;;9.60;99.90;;;;;;5014984;28;20457;-69
2022/09/19 02:03:22;;;;;;;4.70;3.50;;;9.60;99.90;;;;;;5014823;28;20571;-71
2022/09/19 02:05:55;;;;;;;5.37;3.50;;;9.60;99.90;;;;;;5029849;28;20512;-71
2022/09/19 02:08:29;;;;;;;7.43;3.70;;;9.60;99.90;;;;;;5076223;28;20883;-71
2022/09/19 02:11:00;;;;;;;6.53;3.80;;;9.60;99.90;;;;;;5075902;28;20529;-70
2022/09/19 02:13:33;;;;;;;10.27;4.30;;;9.60;99.90;;;;;;5076349;28;20443;-71
2022/09/19 02:16:09;;;;;;;7.20;4.10;;;9.60;99.90;;;;;;5075881;28;20942;-71
2022/09/19 02:18:42;;;;;;;9.60;4.67;;;9.60;99.90;;;;;;5076260;28;20442;-71
2022/09/19 02:21:16;;;;;;;10.20;3.57;;;9.60;99.90;;;;;;5076208;28;20465;-69
2022/09/19 02:23:48;;;;;;;5.77;4.90;;;9.50;99.90;;;;;;5075621;28;20442;-70
2022/09/19 02:26:20;;;;;;;7.10;4.37;;;9.50;99.90;;;;;;5075844;28;20445;-70
2022/09/19 02:28:54;;;;;;;6.93;5.37;;;9.40;99.90;;;;;;5076561;28;20445;-69
2022/09/19 02:31:24;;;;;;;5.20;3.70;;;9.40;99.90;;;;;;5076743;28;20739;-71
2022/09/19 02:33:51;;;;;;;9.67;4.43;;;9.40;99.90;;;;;;5076570;28;20465;-71
2022/09/19 02:36:23;;;;;;;8.50;4.53;;;9.40;99.90;;;;;;5076410;28;20493;-71
2022/09/19 02:38:57;;;;;;;10.03;5.23;;;9.50;99.90;;;;;;5077093;28;20457;-72
2022/09/19 02:41:30;;;;;;;7.47;4.70;;;9.50;99.90;;;;;;5075573;28;20442;-71
2022/09/19 02:44:03;;;;;;;8.63;4.90;;;9.60;99.90;;;;;;5075456;28;20537;-71
2022/09/19 02:46:39;;;;;;;9.93;4.83;;;9.60;99.90;;;;;;5075877;28;20768;-70
2022/09/19 02:49:09;;;;;;;10.83;5.37;;;9.60;99.90;;;;;;5076044;28;20438;-70
2022/09/19 02:51:41;;;;;;;7.80;5.23;;;9.60;99.90;;;;;;5075484;28;20458;-70
2022/09/19 02:54:12;;;;;;;8.27;4.30;;;9.60;99.90;;;;;;5075562;28;20852;-70
2022/09/19 02:56:41;;;;;;;6.70;4.00;;;9.60;99.90;;;;;;5075240;28;20466;-71
2022/09/19 02:59:11;;;;;;;5.33;4.70;;;9.60;99.90;;;;;;5075487;28;20469;-71
2022/09/19 03:01:45;;;;;;;8.00;5.13;;;9.60;99.90;;;;;;5075416;28;20451;-71
2022/09/19 03:04:16;;;;;;;4.73;4.13;;;9.70;99.90;;;;;;5074955;28;20482;-71
2022/09/19 03:06:49;;;;;;;7.87;4.93;;;9.70;99.90;;;;;;5074995;28;20632;-71
2022/09/19 03:09:20;;;;;;;8.60;4.77;;;9.70;99.90;;;;;;5075264;28;20464;-70
2022/09/19 03:11:54;;;;;;;6.00;4.20;;;9.80;99.90;;;;;;5075610;28;20460;-71
2022/09/19 03:14:21;;;;;;;6.13;4.30;;;9.70;99.90;;;;;;5075391;28;20851;-70
2022/09/19 03:16:56;;;;;;;5.20;4.63;;;9.70;99.90;;;;;;5074597;28;20484;-71
2022/09/19 03:19:24;;;;;;;6.60;5.17;;;9.70;99.90;;;;;;5075249;28;20438;-71
2022/09/19 03:21:54;;;;;;;10.63;5.13;;;9.80;99.90;;;;;;5075506;28;20914;-71
2022/09/19 03:24:21;;;;;;;5.20;4.40;;;9.80;99.90;;;;;;5075588;28;20930;-72
2022/09/19 03:26:48;;;;;;;11.33;5.00;;;9.80;99.90;;;;;;5074806;28;20450;-71
2022/09/19 03:29:16;;;;;;;6.30;5.03;;;9.80;99.90;;;;;;5074746;28;20461;-72
2022/09/19 03:31:46;;;;;;;7.53;4.67;;;9.80;99.90;;;;;;5074491;28;20538;-70
2022/09/19 03:34:15;;;;;;;9.40;4.90;;;9.80;99.90;;;;;;5074288;28;20461;-72
2022/09/19 03:36:43;;;;;;;6.60;5.10;;;9.90;99.90;;;;;;5074945;28;20513;-73
2022/09/19 03:39:10;;;;;;;6.50;5.23;;;9.90;99.90;;;;;;5074665;28;20454;-71
2022/09/19 03:41:38;;;;;;;7.77;5.20;;;9.90;99.90;;;;;;5074523;28;20545;-72
2022/09/19 03:44:05;;;;;;;7.20;5.50;;;9.90;99.90;;;;;;5075083;28;20462;-70
2022/09/19 03:46:33;;;;;;;7.70;5.53;;;10.00;99.90;;;;;;5075006;28;20787;-71
2022/09/19 03:49:02;;;;;;;8.70;6.87;;;10.00;99.90;;;;;;5074610;28;20494;-72
2022/09/19 03:51:31;;;;;;;7.57;5.13;;;10.00;99.90;;;;;;5074003;28;20541;-72
2022/09/19 03:53:58;;;;;;;6.60;5.87;;;10.00;99.90;;;;;;5074605;28;20915;-72
2022/09/19 03:56:26;;;;;;;10.77;5.90;;;10.00;99.90;;;;;;5087443;28;20488;-72
2022/09/19 03:58:52;;;;;;;5.90;5.20;;;10.00;99.90;;;;;;5094893;28;20547;-71
2022/09/19 04:01:19;;;;;;;6.80;5.50;;;10.00;99.90;;;;;;5095629;28;20838;-71
2022/09/19 04:03:46;;;;;;;12.30;6.50;;;10.00;99.90;;;;;;5094009;28;20485;-71
2022/09/19 04:06:13;;;;;;;8.60;5.57;;;10.10;99.90;;;;;;5096004;28;20446;-71
2022/09/19 04:08:41;;;;;;;7.03;5.57;;;10.10;99.90;;;;;;5094300;28;20862;-69
2022/09/19 04:11:09;;;;;;;8.97;5.93;;;10.20;99.90;;;;;;5094576;28;20457;-69
2022/09/19 04:13:38;;;;;;;8.27;5.70;;;10.20;99.90;;;;;;5094496;28;20976;-70
2022/09/19 04:16:05;;;;;;;7.83;4.93;;;10.20;99.90;;;;;;5094593;28;20544;-70
2022/09/19 04:18:33;;;;;;;6.13;5.50;;;10.20;99.90;;;;;;5094826;28;20457;-70
2022/09/19 04:21:00;;;;;;;6.83;5.90;;;10.20;99.90;;;;;;5095374;28;20551;-70
2022/09/19 04:23:27;;;;;;;7.80;5.67;;;10.20;99.90;;;;;;5094651;28;20461;-71
2022/09/19 04:25:57;;;;;;;10.47;6.10;;;10.20;99.90;;;;;;5094828;28;20452;-70
2022/09/19 04:28:24;;;;;;;9.73;5.63;;;10.20;99.90;;;;;;5094574;28;20489;-71
2022/09/19 04:30:51;;;;;;;8.40;6.57;;;10.20;99.90;;;;;;5094569;28;20522;-70
2022/09/19 04:33:20;;;;;;;8.00;6.07;;;10.20;99.90;;;;;;5084161;28;27464;-69
2022/09/19 04:35:47;;;;;;;7.10;5.83;;;10.30;99.90;;;;;;5090231;28;20453;-70
2022/09/19 04:38:17;;;;;;;10.60;6.47;;;10.40;99.90;;;;;;5093982;28;20477;-69
2022/09/19 04:40:47;;;;;;;8.60;6.10;;;10.40;99.90;;;;;;5094580;28;20743;-71
2022/09/19 04:43:18;;;;;;;7.80;5.37;;;10.40;99.90;;;;;;5094520;28;20467;-70
2022/09/19 04:45:48;;;;;;;6.40;5.80;;;10.40;99.90;;;;;;5095886;28;20532;-70
2022/09/19 04:48:15;;;;;;;6.10;5.50;;;10.50;99.90;;;;;;5097814;28;20514;-69
2022/09/19 04:50:43;;;;;;;7.77;6.03;;;10.50;99.90;;;;;;5098047;28;20792;-69
2022/09/19 04:53:13;;;;;;;8.63;6.50;;;10.40;99.90;;;;;;5098470;28;20737;-69
2022/09/19 04:55:40;;;;;;;8.33;6.30;;;10.50;99.90;;;;;;5097732;28;20559;-69
2022/09/19 04:58:07;;;;;;;7.10;5.23;;;10.50;99.90;;;;;;5097870;28;20480;-70
2022/09/19 05:00:39;;;;;;;6.40;5.73;;;10.50;99.90;;;;;;5097532;28;20544;-71
2022/09/19 05:03:08;;;;;;;8.83;5.80;;;10.50;99.90;;;;;;5097366;28;20484;-69
2022/09/19 05:05:37;;;;;;;8.27;5.93;;;10.60;99.90;;;;;;5097799;28;20914;-69
2022/09/19 05:08:05;;;;;;;8.57;6.10;;;10.60;99.90;;;;;;5098256;28;20468;-71
2022/09/19 05:10:33;;;;;;;7.43;5.50;;;10.60;99.90;;;;;;5097682;28;20567;-70
2022/09/19 05:13:00;;;;;;;7.00;5.53;;;10.70;99.90;;;;;;5097323;28;20915;-70
2022/09/19 05:15:27;;;;;;;7.83;5.93;;;10.70;99.90;;;;;;5097444;28;20557;-71
2022/09/19 05:17:56;;;;;;;10.30;6.70;;;10.70;99.90;;;;;;5097467;28;20504;-70
2022/09/19 05:20:25;;;;;;;6.87;6.17;;;10.70;99.90;;;;;;5097214;28;20453;-71
2022/09/19 05:22:56;;;;;;;10.23;6.10;;;10.80;99.90;;;;;;5097554;28;20465;-71
2022/09/19 05:25:23;;;;;;;8.57;6.43;;;10.80;99.90;;;;;;5097277;28;20441;-70
2022/09/19 05:27:50;;;;;;;6.27;5.50;;;10.90;99.90;;;;;;5097365;28;20941;-70
2022/09/19 05:30:17;;;;;;;7.40;5.87;;;10.90;99.90;;;;;;5097157;28;20754;-70
2022/09/19 05:32:44;;;;;;;7.83;6.10;;;10.90;99.90;;;;;;5097257;28;20848;-72
2022/09/19 05:35:13;;;;;;;35.10;23.60;;;10.90;99.90;;;;;;5095710;28;20523;-69
2022/09/19 05:37:41;;;;;;;6.37;5.70;;;10.90;99.90;;;;;;5097190;28;20481;-70
2022/09/19 05:40:10;;;;;;;6.30;5.33;;;11.00;99.90;;;;;;5097048;28;20929;-68
2022/09/19 05:42:41;;;;;;;7.87;7.03;;;11.00;99.90;;;;;;5096989;28;20457;-71
2022/09/19 05:45:09;;;;;;;8.70;6.90;;;11.00;99.90;;;;;;5097357;28;20472;-70
2022/09/19 05:47:38;;;;;;;8.27;5.77;;;11.00;99.90;;;;;;5097140;28;20745;-69
2022/09/19 05:50:07;;;;;;;6.57;5.70;;;11.00;99.90;;;;;;5096833;28;20769;-71
2022/09/19 05:55:20;;;;;;;13.80;6.37;;;11.00;99.90;;;;;;5096570;28;20433;-72
2022/09/19 05:57:51;;;;;;;7.90;5.60;;;11.00;99.90;;;;;;5096764;28;20477;-72
2022/09/19 06:00:19;;;;;;;8.17;7.30;;;11.00;99.90;;;;;;5098000;28;20463;-73
2022/09/19 06:02:52;;;;;;;13.67;5.23;;;11.10;99.90;;;;;;5100049;28;20917;-78
2022/09/19 06:05:19;;;;;;;8.53;6.00;;;11.10;99.90;;;;;;5098047;28;20460;-72
2022/09/19 06:07:47;;;;;;;7.97;4.87;;;11.10;99.90;;;;;;5096477;28;20453;-70
2022/09/19 06:10:14;;;;;;;9.03;5.60;;;11.10;99.90;;;;;;5088232;28;20552;-70
2022/09/19 06:12:41;;;;;;;8.43;4.73;;;11.10;99.90;;;;;;5089084;28;20501;-70
2022/09/19 06:15:09;;;;;;;7.70;4.90;;;11.20;99.90;;;;;;5076378;28;20843;-70
2022/09/19 06:17:36;;;;;;;7.17;5.00;;;11.20;99.90;;;;;;5076122;28;20811;-70
2022/09/19 06:20:03;;;;;;;5.57;5.00;;;11.20;99.90;;;;;;5076130;28;20519;-70
2022/09/19 06:22:30;;;;;;;6.20;4.80;;;11.30;99.90;;;;;;5076322;28;20464;-70
2022/09/19 06:24:59;;;;;;;9.83;4.07;;;11.40;99.90;;;;;;5075854;28;20462;-70
2022/09/19 06:27:25;;;;;;;8.47;4.53;;;11.50;99.90;;;;;;5076133;28;20458;-70
2022/09/19 06:29:52;;;;;;;7.17;4.50;;;11.50;99.90;;;;;;5075784;28;21010;-70
2022/09/19 06:32:20;;;;;;;6.40;4.37;;;11.60;99.90;;;;;;5076223;28;20450;-70
2022/09/19 06:34:47;;;;;;;7.13;4.73;;;11.60;99.90;;;;;;5075482;28;20455;-70
2022/09/19 06:37:14;;;;;;;5.90;4.23;;;11.60;99.90;;;;;;5093588;28;20568;-70
2022/09/19 06:39:40;;;;;;;6.67;3.80;;;11.70;99.90;;;;;;5096069;28;20479;-69
2022/09/19 06:42:09;;;;;;;4.70;3.80;;;11.70;99.90;;;;;;5095533;28;20548;-69
2022/09/19 06:44:35;;;;;;;3.77;3.47;;;11.70;99.90;;;;;;5096092;28;20463;-69
2022/09/19 06:47:02;;;;;;;6.40;3.77;;;11.70;99.90;;;;;;5096030;28;20450;-69
2022/09/19 06:49:29;;;;;;;6.67;3.50;;;11.80;99.90;;;;;;5096006;28;20874;-71
2022/09/19 06:51:56;;;;;;;5.80;3.50;;;11.80;99.90;;;;;;5095566;28;20503;-70
2022/09/19 06:54:24;;;;;;;6.80;4.00;;;11.90;99.90;;;;;;5095805;28;20526;-69
2022/09/19 06:56:51;;;;;;;5.63;3.57;;;11.90;99.90;;;;;;5095328;28;20960;-70
2022/09/19 06:59:20;;;;;;;3.80;3.17;;;11.90;99.90;;;;;;5095082;28;20454;-70
2022/09/19 07:01:46;;;;;;;6.43;3.53;;;12.00;99.90;;;;;;5095184;28;20468;-70
2022/09/19 07:04:14;;;;;;;8.73;6.50;;;12.00;99.90;;;;;;5095413;28;20481;-71
2022/09/19 07:06:41;;;;;;;4.27;3.83;;;12.10;99.90;;;;;;5095841;28;20552;-71
2022/09/19 07:09:08;;;;;;;4.23;3.40;;;12.10;99.90;;;;;;5094876;28;20489;-71
2022/09/19 07:11:37;;;;;;;4.77;3.77;;;12.10;99.90;;;;;;5095167;28;20468;-71
2022/09/19 07:14:04;;;;;;;5.20;3.77;;;12.20;99.90;;;;;;5095647;28;20484;-71
2022/09/19 07:16:33;;;;;;;4.63;3.77;;;12.30;99.90;;;;;;5095440;28;20544;-71
2022/09/19 07:18:59;;;;;;;3.63;2.80;;;12.40;99.90;;;;;;5095300;28;20488;-71
2022/09/19 07:21:26;;;;;;;5.10;2.83;;;12.40;99.90;;;;;;5096358;28;20509;-70
2022/09/19 07:23:54;;;;;;;5.57;2.70;;;12.40;99.90;;;;;;5095249;28;20545;-69
2022/09/19 07:26:22;;;;;;;3.23;2.37;;;12.50;99.90;;;;;;5095007;28;20542;-71
2022/09/19 07:28:49;;;;;;;5.93;2.50;;;12.60;99.90;;;;;;5095182;28;20464;-71
2022/09/19 07:31:16;;;;;;;4.33;2.47;;;12.60;99.90;;;;;;5094471;28;20473;-70
2022/09/19 07:33:45;;;;;;;3.47;2.30;;;12.70;99.90;;;;;;5095021;28;20945;-70
2022/09/19 07:36:11;;;;;;;3.30;2.63;;;12.70;99.90;;;;;;5094452;28;20465;-70
2022/09/19 07:38:38;;;;;;;3.20;2.50;;;12.70;99.90;;;;;;5094339;28;20477;-71
2022/09/19 07:41:05;;;;;;;6.10;2.40;;;12.70;99.90;;;;;;5094783;28;20540;-71
2022/09/19 07:43:32;;;;;;;3.37;2.30;;;12.80;99.90;;;;;;5094503;28;20461;-70
2022/09/19 07:45:59;;;;;;;3.37;2.10;;;12.80;99.90;;;;;;5094451;28;20540;-70
2022/09/19 07:48:26;;;;;;;3.27;2.00;;;12.90;99.90;;;;;;5094381;28;20978;-71
2022/09/19 07:50:54;;;;;;;4.40;2.33;;;12.90;99.90;;;;;;5094249;28;20463;-69
2022/09/19 07:53:22;;;;;;;4.90;1.80;;;13.00;99.90;;;;;;5094203;28;20793;-69
2022/09/19 07:55:51;;;;;;;2.63;1.97;;;13.00;99.90;;;;;;5094270;28;20459;-69
2022/09/19 07:58:20;;;;;;;5.73;4.70;;;13.00;99.90;;;;;;5093988;28;20477;-71
2022/09/19 08:00:48;;;;;;;3.03;2.63;;;13.10;99.90;;;;;;5093706;28;20457;-70
2022/09/19 08:03:16;;;;;;;5.20;2.00;;;13.20;99.90;;;;;;5094633;28;20496;-70
2022/09/19 08:05:45;;;;;;;5.67;2.10;;;13.30;99.90;;;;;;5095212;28;20543;-70
2022/09/19 08:08:16;;;;;;;4.53;2.40;;;13.40;99.90;;;;;;5095644;28;20556;-70
2022/09/19 08:10:44;;;;;;;3.27;1.70;;;13.40;99.90;;;;;;5095493;28;20452;-70
2022/09/19 08:13:16;;;;;;;5.87;1.73;;;13.50;99.90;;;;;;5096977;28;20935;-70
2022/09/19 08:15:44;;;;;;;4.00;2.00;;;13.50;99.90;;;;;;5096423;28;20867;-70
2022/09/19 08:18:14;;;;;;;3.50;2.33;;;13.60;99.90;;;;;;5096346;28;21021;-69
2022/09/19 08:20:42;;;;;;;2.10;1.50;;;13.60;99.90;;;;;;5098356;28;20453;-70
2022/09/19 08:23:10;;;;;;;2.07;1.83;;;13.70;99.90;;;;;;5100595;28;20556;-69
2022/09/19 08:25:46;;;;;;;7.00;1.60;;;13.70;99.90;;;;;;5100517;28;20547;-70
2022/09/19 08:28:12;;;;;;;4.83;1.87;;;13.70;99.90;;;;;;5100922;28;20745;-70
2022/09/19 08:30:41;;;;;;;7.20;1.93;;;13.70;99.90;;;;;;5099661;28;20850;-70
2022/09/19 08:33:10;;;;;;;2.63;1.60;;;13.90;99.90;;;;;;5099416;28;20552;-70
2022/09/19 08:35:37;;;;;;;4.20;1.50;;;14.00;99.90;;;;;;5100652;28;20492;-70
2022/09/19 08:38:06;;;;;;;2.57;1.30;;;14.10;99.90;;;;;;5100146;28;20564;-69
2022/09/19 08:40:36;;;;;;;2.63;1.30;;;14.20;99.90;;;;;;5098283;28;20540;-68
2022/09/19 08:43:11;;;;;;;2.67;1.20;;;14.30;99.90;;;;;;5098453;28;20467;-70
2022/09/19 08:45:55;;;;;;;1.77;1.23;;;14.40;99.90;;;;;;5098490;28;20466;-70
2022/09/19 08:48:29;;;;;;;2.03;1.70;;;14.50;99.90;;;;;;5098165;28;20514;-70
2022/09/19 08:51:01;;;;;;;4.17;1.33;;;14.60;99.90;;;;;;5099709;28;20441;-71
2022/09/19 08:53:33;;;;;;;2.17;1.37;;;14.70;99.90;;;;;;5101328;28;20453;-70
2022/09/19 08:56:01;;;;;;;2.90;1.47;;;14.80;99.90;;;;;;5099785;28;20850;-70
2022/09/19 08:58:32;;;;;;;3.47;1.20;;;14.80;99.90;;;;;;5097996;28;20581;-70
2022/09/19 09:01:00;;;;;;;3.40;1.67;;;14.90;99.90;;;;;;5098689;28;20528;-70
2022/09/19 09:03:39;;;;;;;1.70;1.00;;;14.80;99.90;;;;;;5099001;28;20965;-70
2022/09/19 09:06:20;;;;;;;1.27;1.00;;;14.80;99.90;;;;;;5099262;28;20467;-69
2022/09/19 09:08:56;;;;;;;5.53;1.67;;;14.80;99.90;;;;;;5099422;28;20892;-69
2022/09/19 09:11:32;;;;;;;2.20;1.30;;;14.80;99.90;;;;;;5098691;28;20451;-72
2022/09/19 09:14:08;;;;;;;1.67;1.03;;;14.70;99.90;;;;;;5098854;28;20451;-69
2022/09/19 09:16:48;;;;;;;3.40;1.00;;;14.70;99.90;;;;;;5099345;28;20437;-70
2022/09/19 09:19:35;;;;;;;1.63;1.20;;;14.80;99.90;;;;;;5099951;28;20497;-69
2022/09/19 09:22:16;;;;;;;2.73;1.60;;;14.90;99.90;;;;;;5097464;28;20453;-69
2022/09/19 09:24:46;;;;;;;2.03;1.20;;;15.00;99.90;;;;;;5098778;28;20446;-70
2022/09/19 09:27:18;;;;;;;2.13;1.20;;;15.10;99.90;;;;;;5099229;28;20879;-70
2022/09/19 09:29:50;;;;;;;3.30;1.00;;;15.20;99.90;;;;;;5099171;28;20446;-70
2022/09/19 09:32:21;;;;;;;3.63;1.00;;;15.30;99.90;;;;;;5098411;28;20437;-71
2022/09/19 09:34:55;;;;;;;2.83;1.07;;;15.30;99.90;;;;;;5099673;28;20438;-70
2022/09/19 09:37:25;;;;;;;2.80;1.20;;;15.40;99.90;;;;;;5098764;28;20477;-71
2022/09/19 09:40:00;;;;;;;1.30;1.00;;;15.50;99.90;;;;;;5098634;28;20796;-71
2022/09/19 09:42:33;;;;;;;1.77;1.03;;;15.70;99.90;;;;;;5097527;28;20751;-70
2022/09/19 09:45:07;;;;;;;1.77;0.93;;;15.90;99.90;;;;;;5097989;28;20457;-71
2022/09/19 09:47:45;;;;;;;1.73;1.10;;;16.00;99.90;;;;;;5098596;28;20442;-70
2022/09/19 09:50:32;;;;;;;2.27;1.00;;;15.90;99.90;;;;;;5097522;28;20538;-68
2022/09/19 09:53:08;;;;;;;2.67;1.00;;;15.80;99.90;;;;;;5097121;28;20453;-69
2022/09/19 09:58:37;;;;;;;2.70;1.40;;;15.40;99.90;;;;;;5097291;28;20572;-69
2022/09/19 10:04:17;;;;;;;2.03;0.83;;;14.60;99.90;;;;;;5096917;28;20496;-69
2022/09/19 10:06:52;;;;;;;1.90;1.50;;;14.20;99.90;;;;;;5096758;28;20473;-69
2022/09/19 10:09:23;;;;;;;1.63;0.80;;;14.00;99.90;;;;;;5096583;28;20434;-69
2022/09/19 10:11:56;;;;;;;1.90;0.77;;;13.80;99.90;;;;;;5097067;28;20484;-71
2022/09/19 10:14:28;;;;;;;3.17;0.80;;;13.40;99.90;;;;;;5096460;28;20882;-71
2022/09/19 10:17:01;;;;;;;2.70;0.73;;;13.00;99.90;;;;;;5099426;28;20515;-70
2022/09/19 10:19:34;;;;;;;1.80;0.87;;;12.70;99.90;;;;;;5097301;28;20572;-69
2022/09/19 10:22:01;;;;;;;1.97;1.00;;;12.50;99.90;;;;;;5096118;28;20470;-69
2022/09/19 10:24:47;;;;;;;1.83;0.80;;;12.30;99.90;;;;;;5096475;28;20458;-69
2022/09/19 10:27:16;;;;;;;1.20;0.87;;;12.20;99.90;;;;;;5096299;28;20442;-69
2022/09/19 10:29:52;;;;;;;2.80;0.90;;;12.00;99.90;;;;;;5096471;28;20449;-69
2022/09/19 10:32:24;;;;;;;1.60;1.00;;;11.90;99.90;;;;;;5096303;28;20456;-69
2022/09/19 10:34:51;;;;;;;1.50;0.87;;;11.70;99.90;;;;;;5097137;28;20468;-70
2022/09/19 10:37:20;;;;;;;2.50;0.80;;;11.60;99.90;;;;;;5096557;28;20552;-70
2022/09/19 10:39:48;;;;;;;1.97;0.83;;;11.40;99.90;;;;;;5096016;28;20539;-70
2022/09/19 10:42:34;;;;;;;3.70;1.00;;;11.30;99.90;;;;;;5095629;28;20453;-69
2022/09/19 10:45:03;;;;;;;1.60;0.93;;;11.10;99.90;;;;;;5095288;28;20438;-70
2022/09/19 10:47:37;;;;;;;1.20;0.80;;;11.10;99.90;;;;;;5095836;28;20544;-70
2022/09/19 10:50:05;;;;;;;1.40;0.90;;;11.00;99.90;;;;;;5096805;28;20442;-68
2022/09/19 10:52:33;;;;;;;1.50;0.80;;;10.90;99.90;;;;;;5097009;28;20544;-68
2022/09/19 10:55:09;;;;;;;1.30;1.00;;;10.90;99.90;;;;;;5098289;28;20453;-68
2022/09/19 10:57:44;;;;;;;6.00;1.00;;;10.80;99.90;;;;;;5097375;28;20441;-68
2022/09/19 11:00:25;;;;;;;2.07;0.77;;;10.80;99.90;;;;;;5095565;28;20552;-68
2022/09/19 11:02:58;;;;;;;3.60;1.20;;;10.70;99.90;;;;;;5095227;28;20467;-68
2022/09/19 11:05:29;;;;;;;1.80;1.00;;;10.70;99.90;;;;;;5095222;28;20891;-68
2022/09/19 11:07:59;;;;;;;1.70;1.10;;;10.70;99.90;;;;;;5095585;28;20510;-70
2022/09/19 11:10:40;;;;;;;1.70;0.93;;;10.80;99.90;;;;;;5095406;28;20449;-69
2022/09/19 11:13:11;;;;;;;2.07;1.20;;;10.90;99.90;;;;;;5095031;28;20480;-68
2022/09/19 11:16:06;;;;;;;1.77;1.10;;;11.00;99.90;;;;;;5094877;28;20930;-68
2022/09/19 11:18:54;;;;;;;2.10;1.43;;;11.20;99.90;;;;;;5094994;28;20477;-69
2022/09/19 11:21:31;;;;;;;4.07;1.30;;;11.60;99.90;;;;;;5095187;28;20516;-69
2022/09/19 11:24:26;;;;;;;2.33;1.17;;;12.10;99.90;;;;;;5095009;28;20475;-69
2022/09/19 11:27:20;;;;;;;2.20;1.70;;;12.70;99.90;;;;;;5095192;28;20438;-69
2022/09/19 11:30:01;;;;;;;14.10;1.50;;;13.40;99.90;;;;;;5094586;28;20433;-69
2022/09/19 11:32:44;;;;;;;2.63;1.10;;;14.00;99.90;;;;;;5094745;28;20437;-69
2022/09/19 11:35:27;;;;;;;2.80;1.10;;;14.50;99.90;;;;;;5095294;28;20506;-68
2022/09/19 11:38:04;;;;;;;5.60;1.20;;;14.90;99.90;;;;;;5094797;28;20460;-68
2022/09/19 11:40:48;;;;;;;1.70;1.20;;;15.20;99.90;;;;;;5095033;28;20488;-68
2022/09/19 11:43:30;;;;;;;1.40;1.07;;;15.40;99.90;;;;;;5094872;28;20516;-68
2022/09/19 11:46:03;;;;;;;4.17;0.90;;;15.40;99.90;;;;;;5094562;28;20869;-68
2022/09/19 11:49:15;;;;;;;3.00;1.00;;;15.70;99.90;;;;;;5095090;28;20433;-69
2022/09/19 11:51:49;;;;;;;4.43;1.10;;;16.50;99.90;;;;;;5032956;28;20574;-69
2022/09/19 11:54:44;;;;;;;2.87;1.17;;;17.50;99.90;;;;;;5033015;28;20459;-69
2022/09/19 11:57:25;;;;;;;1.70;1.20;;;18.40;99.90;;;;;;5032854;28;20462;-69
2022/09/19 12:00:15;;;;;;;1.43;0.80;;;19.40;99.90;;;;;;5032369;28;20880;-68
2022/09/19 12:03:14;;;;;;;1.60;1.10;;;20.20;99.90;;;;;;5032565;28;20535;-69
2022/09/19 12:05:56;;;;;;;2.13;0.80;;;20.80;99.90;;;;;;5033027;28;20484;-70
2022/09/19 12:08:42;;;;;;;1.30;0.80;;;20.20;99.90;;;;;;5033112;28;20463;-69
2022/09/19 12:11:15;;;;;;;1.40;0.80;;;19.00;99.90;;;;;;5033420;28;20463;-69
2022/09/19 12:13:46;;;;;;;1.70;1.30;;;18.10;99.90;;;;;;5033128;28;20503;-69
2022/09/19 12:16:20;;;;;;;1.10;0.73;;;17.50;99.90;;;;;;5033108;28;20436;-69
2022/09/19 12:18:52;;;;;;;2.07;0.80;;;16.70;99.90;;;;;;5032752;28;20467;-68
2022/09/19 12:21:23;;;;;;;1.80;1.00;;;16.00;99.90;;;;;;5032802;28;20448;-69
2022/09/19 12:26:53;;;;;;;1.40;0.80;;;15.10;99.90;;;;;;5044022;28;21016;-69
2022/09/19 12:29:27;;;;;;;5.07;0.93;;;14.60;99.90;;;;;;5094536;28;20528;-69
2022/09/19 12:32:00;;;;;;;2.03;0.73;;;14.30;99.90;;;;;;5095298;28;20433;-69
2022/09/19 12:34:35;;;;;;;1.80;0.83;;;14.10;99.90;;;;;;5095183;28;20879;-69
2022/09/19 12:37:09;;;;;;;3.53;0.80;;;13.90;99.90;;;;;;5095676;28;20473;-69
2022/09/19 12:39:45;;;;;;;1.30;0.90;;;13.70;99.90;;;;;;5094894;28;20562;-69
2022/09/19 12:42:18;;;;;;;1.37;0.80;;;13.60;99.90;;;;;;5094839;28;20774;-69
2022/09/19 12:44:54;;;;;;;2.17;0.90;;;13.50;99.90;;;;;;5094249;28;20491;-69
2022/09/19 12:47:37;;;;;;;1.10;0.87;;;13.40;99.90;;;;;;5094068;28;20438;-69
2022/09/19 12:50:27;;;;;;;1.43;0.87;;;13.40;99.90;;;;;;5094268;28;20777;-69
2022/09/19 12:53:07;;;;;;;1.30;1.07;;;13.30;99.90;;;;;;5091963;28;20520;-69
2022/09/19 12:55:41;;;;;;;2.43;0.93;;;13.30;99.90;;;;;;5091977;28;20749;-69
2022/09/19 12:58:16;;;;;;;1.70;1.30;;;13.30;99.90;;;;;;5091625;28;20448;-68
2022/09/19 13:00:45;;;;;;;2.63;1.30;;;13.30;99.90;;;;;;5091563;28;20491;-69
2022/09/19 13:03:21;;;;;;;2.03;1.40;;;13.20;99.90;;;;;;5091619;28;20613;-69
2022/09/19 13:05:51;;;;;;;4.03;1.30;;;13.10;99.90;;;;;;5091799;28;20955;-69
2022/09/19 13:08:22;;;;;;;1.97;1.20;;;13.00;99.90;;;;;;5095501;28;20503;-69
2022/09/19 13:11:01;;;;;;;1.93;1.23;;;12.90;99.90;;;;;;5095382;28;20433;-69
2022/09/19 13:13:34;;;;;;;2.73;0.90;;;12.80;99.90;;;;;;5095063;28;20491;-69
2022/09/19 13:16:06;;;;;;;3.10;1.07;;;12.70;99.90;;;;;;5095451;28;20903;-68
2022/09/19 13:24:05;;;;;;;2.03;1.40;;;12.60;99.90;;;;;;5095223;28;20470;-69
2022/09/19 13:26:36;;;;;;;1.80;1.00;;;12.70;99.90;;;;;;5095096;28;20457;-69
2022/09/19 13:29:08;;;;;;;5.63;1.60;;;12.70;99.90;;;;;;5096515;28;20899;-67
2022/09/19 13:32:00;;;;;;;2.17;1.30;;;12.60;99.90;;;;;;5095539;28;20533;-70